Tuntutuliak, Alaska
Current Conditions -  °F | °C
As of 12:56 AM on Sunday 26 Oct 2014 (Local Time) from PANA Reporting Station
Clear Clear  
Wind Chill: 18°   Ceiling: Unl
Heat Index: 24°   Visibility: 10mi
Dew Point: 22°   Wind: 5mph
Humidity: 91%   Direction: 250°WSW
Pressure: 29.9"   Gusts: NA
Location:  60.33°N, 162.74°W
Report Text: PANA 260856Z AUTO 25004KT 10SM CLR M04/M06 A2990 RMK AO2 SLP125 T10441056 400171044 53019 FZRANO
Loading
Personal Weather Stations






























Interactive Weather Map
Tropical Storm Tracking
New forecast layout! Learn more

10-Day Weather Forecast

Advertisements
Track Severe Weather on mobile